Terminal Aerodrome Forecast
Issued by NWS

Home | Current Version | Previous Version | Text Only | Print | Product List | Glossary On
Versions: 1 2 3 4 5 6 7 8 9 10 11 12 13 14 15 16 17 18 19
000
FTUS46 KSGX 281141
TAFSNA
TAF
KSNA 281141Z 2812/0112 24010G20KT P6SM VCSH SCT025 BKN035
     FM010400 23005KT 6SM BR VCSH BKN025 OVC035
     FM011000 05005KT 5SM -SHRA BR FEW015 BKN025 OVC035=

USA.gov is the U.S. government's official web portal to all federal, state and local government web resources and services.